sensor_id;sensor_type;location;lat;lon;timestamp;P1;durP1;ratioP1;P2;durP2;ratioP2
32327;SDS011;18806;51.558;5.100;2022-10-14T00:01:09;45.88;;;33.20;;
32327;SDS011;18806;51.558;5.100;2022-10-14T00:03:37;46.75;;;32.47;;
32327;SDS011;18806;51.558;5.100;2022-10-14T00:06:14;44.17;;;31.42;;
32327;SDS011;18806;51.558;5.100;2022-10-14T00:08:41;42.28;;;30.45;;
32327;SDS011;18806;51.558;5.100;2022-10-14T00:11:13;45.35;;;30.98;;
32327;SDS011;18806;51.558;5.100;2022-10-14T00:13:40;43.90;;;31.13;;
32327;SDS011;18806;51.558;5.100;2022-10-14T00:16:19;44.25;;;30.98;;
32327;SDS011;18806;51.558;5.100;2022-10-14T00:18:47;41.50;;;29.58;;
32327;SDS011;18806;51.558;5.100;2022-10-14T00:21:14;41.80;;;29.83;;
32327;SDS011;18806;51.558;5.100;2022-10-14T00:23:42;41.63;;;29.50;;
32327;SDS011;18806;51.558;5.100;2022-10-14T00:28:56;39.70;;;29.40;;
32327;SDS011;18806;51.558;5.100;2022-10-14T00:31:23;40.47;;;30.35;;
32327;SDS011;18806;51.558;5.100;2022-10-14T00:33:50;41.10;;;30.02;;
32327;SDS011;18806;51.558;5.100;2022-10-14T00:36:18;40.22;;;29.40;;
32327;SDS011;18806;51.558;5.100;2022-10-14T00:38:46;40.20;;;29.10;;
32327;SDS011;18806;51.558;5.100;2022-10-14T00:41:14;39.22;;;29.08;;
32327;SDS011;18806;51.558;5.100;2022-10-14T00:46:29;37.93;;;28.97;;
32327;SDS011;18806;51.558;5.100;2022-10-14T00:48:57;38.92;;;29.02;;
32327;SDS011;18806;51.558;5.100;2022-10-14T00:51:24;38.67;;;28.47;;
32327;SDS011;18806;51.558;5.100;2022-10-14T00:53:52;39.30;;;29.38;;
32327;SDS011;18806;51.558;5.100;2022-10-14T00:56:24;36.53;;;28.60;;
32327;SDS011;18806;51.558;5.100;2022-10-14T00:58:51;36.58;;;28.88;;
32327;SDS011;18806;51.558;5.100;2022-10-14T01:01:19;37.33;;;27.80;;
32327;SDS011;18806;51.558;5.100;2022-10-14T01:03:51;36.40;;;27.88;;
32327;SDS011;18806;51.558;5.100;2022-10-14T01:06:24;37.05;;;28.45;;
32327;SDS011;18806;51.558;5.100;2022-10-14T01:11:49;38.42;;;28.42;;
32327;SDS011;18806;51.558;5.100;2022-10-14T01:17:45;36.63;;;27.02;;
32327;SDS011;18806;51.558;5.100;2022-10-14T01:28:28;40.88;;;28.27;;
32327;SDS011;18806;51.558;5.100;2022-10-14T01:31:06;37.22;;;27.95;;
32327;SDS011;18806;51.558;5.100;2022-10-14T01:33:39;37.95;;;28.10;;
32327;SDS011;18806;51.558;5.100;2022-10-14T01:38:45;38.10;;;28.00;;
32327;SDS011;18806;51.558;5.100;2022-10-14T01:41:14;40.78;;;28.33;;
32327;SDS011;18806;51.558;5.100;2022-10-14T01:43:43;38.05;;;27.60;;
32327;SDS011;18806;51.558;5.100;2022-10-14T01:46:12;34.83;;;27.38;;
32327;SDS011;18806;51.558;5.100;2022-10-14T01:48:43;35.75;;;27.45;;
32327;SDS011;18806;51.558;5.100;2022-10-14T01:51:13;37.47;;;27.40;;
32327;SDS011;18806;51.558;5.100;2022-10-14T01:53:42;36.90;;;26.73;;
32327;SDS011;18806;51.558;5.100;2022-10-14T01:56:15;34.50;;;26.60;;
32327;SDS011;18806;51.558;5.100;2022-10-14T01:58:42;34.95;;;27.08;;
32327;SDS011;18806;51.558;5.100;2022-10-14T02:01:11;35.47;;;27.08;;
32327;SDS011;18806;51.558;5.100;2022-10-14T02:03:42;35.47;;;27.33;;
32327;SDS011;18806;51.558;5.100;2022-10-14T02:06:32;35.67;;;27.07;;
32327;SDS011;18806;51.558;5.100;2022-10-14T02:11:50;36.45;;;26.88;;
32327;SDS011;18806;51.558;5.100;2022-10-14T02:16:54;35.80;;;26.70;;
32327;SDS011;18806;51.558;5.100;2022-10-14T02:19:25;38.50;;;27.27;;
32327;SDS011;18806;51.558;5.100;2022-10-14T02:21:58;34.50;;;26.40;;
32327;SDS011;18806;51.558;5.100;2022-10-14T02:24:30;35.75;;;27.27;;
32327;SDS011;18806;51.558;5.100;2022-10-14T02:26:58;34.33;;;26.67;;
32327;SDS011;18806;51.558;5.100;2022-10-14T02:29:26;34.90;;;26.25;;
32327;SDS011;18806;51.558;5.100;2022-10-14T02:31:53;34.50;;;26.23;;
32327;SDS011;18806;51.558;5.100;2022-10-14T02:34:22;34.30;;;26.15;;
32327;SDS011;18806;51.558;5.100;2022-10-14T02:36:49;33.03;;;25.92;;
32327;SDS011;18806;51.558;5.100;2022-10-14T02:39:20;35.23;;;25.53;;
32327;SDS011;18806;51.558;5.100;2022-10-14T02:41:47;30.77;;;24.45;;
32327;SDS011;18806;51.558;5.100;2022-10-14T02:44:14;32.30;;;24.73;;
32327;SDS011;18806;51.558;5.100;2022-10-14T02:46:41;33.00;;;25.65;;
32327;SDS011;18806;51.558;5.100;2022-10-14T02:49:09;33.63;;;25.20;;
32327;SDS011;18806;51.558;5.100;2022-10-14T02:51:36;36.92;;;25.77;;
32327;SDS011;18806;51.558;5.100;2022-10-14T02:54:04;36.43;;;26.00;;
32327;SDS011;18806;51.558;5.100;2022-10-14T02:56:31;38.80;;;26.90;;
32327;SDS011;18806;51.558;5.100;2022-10-14T02:58:58;36.83;;;27.05;;
32327;SDS011;18806;51.558;5.100;2022-10-14T03:01:25;38.33;;;26.93;;
32327;SDS011;18806;51.558;5.100;2022-10-14T03:03:52;37.78;;;26.45;;
32327;SDS011;18806;51.558;5.100;2022-10-14T03:06:19;37.55;;;26.17;;
32327;SDS011;18806;51.558;5.100;2022-10-14T03:08:46;37.58;;;26.88;;
32327;SDS011;18806;51.558;5.100;2022-10-14T03:11:13;40.42;;;26.63;;
32327;SDS011;18806;51.558;5.100;2022-10-14T03:13:40;41.60;;;27.45;;
32327;SDS011;18806;51.558;5.100;2022-10-14T03:16:07;38.67;;;26.58;;
32327;SDS011;18806;51.558;5.100;2022-10-14T03:18:39;39.40;;;26.15;;
32327;SDS011;18806;51.558;5.100;2022-10-14T03:21:06;40.53;;;27.63;;
32327;SDS011;18806;51.558;5.100;2022-10-14T03:23:33;40.00;;;26.53;;
32327;SDS011;18806;51.558;5.100;2022-10-14T03:26:00;40.13;;;26.88;;
32327;SDS011;18806;51.558;5.100;2022-10-14T03:28:27;41.08;;;27.05;;
32327;SDS011;18806;51.558;5.100;2022-10-14T03:30:55;41.63;;;28.77;;
32327;SDS011;18806;51.558;5.100;2022-10-14T03:33:22;43.95;;;29.38;;
32327;SDS011;18806;51.558;5.100;2022-10-14T03:35:51;43.80;;;29.40;;
32327;SDS011;18806;51.558;5.100;2022-10-14T03:38:18;49.00;;;30.08;;
32327;SDS011;18806;51.558;5.100;2022-10-14T03:40:46;49.97;;;31.05;;
32327;SDS011;18806;51.558;5.100;2022-10-14T03:43:13;46.30;;;30.95;;
32327;SDS011;18806;51.558;5.100;2022-10-14T03:45:40;49.20;;;30.80;;
32327;SDS011;18806;51.558;5.100;2022-10-14T03:48:07;50.00;;;31.13;;
32327;SDS011;18806;51.558;5.100;2022-10-14T03:50:45;47.80;;;30.58;;
32327;SDS011;18806;51.558;5.100;2022-10-14T03:53:12;48.45;;;30.35;;
32327;SDS011;18806;51.558;5.100;2022-10-14T03:55:39;47.53;;;30.52;;
32327;SDS011;18806;51.558;5.100;2022-10-14T03:58:07;49.38;;;29.95;;
32327;SDS011;18806;51.558;5.100;2022-10-14T04:00:34;47.45;;;31.05;;
32327;SDS011;18806;51.558;5.100;2022-10-14T04:03:01;45.87;;;29.30;;
32327;SDS011;18806;51.558;5.100;2022-10-14T04:05:28;49.08;;;30.40;;
32327;SDS011;18806;51.558;5.100;2022-10-14T04:07:59;44.97;;;30.02;;
32327;SDS011;18806;51.558;5.100;2022-10-14T04:10:26;49.40;;;30.58;;
32327;SDS011;18806;51.558;5.100;2022-10-14T04:12:53;44.17;;;30.27;;
32327;SDS011;18806;51.558;5.100;2022-10-14T04:15:20;46.97;;;31.42;;
32327;SDS011;18806;51.558;5.100;2022-10-14T04:17:48;45.70;;;30.13;;
32327;SDS011;18806;51.558;5.100;2022-10-14T04:20:16;47.10;;;31.90;;
32327;SDS011;18806;51.558;5.100;2022-10-14T04:22:43;46.67;;;31.40;;
32327;SDS011;18806;51.558;5.100;2022-10-14T04:25:10;48.17;;;31.38;;
32327;SDS011;18806;51.558;5.100;2022-10-14T04:27:37;48.25;;;31.20;;
32327;SDS011;18806;51.558;5.100;2022-10-14T04:30:05;48.03;;;31.63;;
32327;SDS011;18806;51.558;5.100;2022-10-14T04:32:32;45.47;;;30.50;;
32327;SDS011;18806;51.558;5.100;2022-10-14T04:34:59;48.08;;;31.30;;
32327;SDS011;18806;51.558;5.100;2022-10-14T04:37:27;44.90;;;30.30;;
32327;SDS011;18806;51.558;5.100;2022-10-14T04:39:56;45.88;;;30.85;;
32327;SDS011;18806;51.558;5.100;2022-10-14T04:42:24;44.03;;;30.00;;
32327;SDS011;18806;51.558;5.100;2022-10-14T04:44:51;44.78;;;30.25;;
32327;SDS011;18806;51.558;5.100;2022-10-14T04:47:18;43.20;;;30.20;;
32327;SDS011;18806;51.558;5.100;2022-10-14T04:49:45;45.83;;;29.40;;
32327;SDS011;18806;51.558;5.100;2022-10-14T04:52:12;43.93;;;28.73;;
32327;SDS011;18806;51.558;5.100;2022-10-14T04:54:39;38.67;;;27.80;;
32327;SDS011;18806;51.558;5.100;2022-10-14T04:57:06;41.60;;;28.27;;
32327;SDS011;18806;51.558;5.100;2022-10-14T04:59:35;41.15;;;28.25;;
32327;SDS011;18806;51.558;5.100;2022-10-14T05:02:02;37.95;;;27.38;;
32327;SDS011;18806;51.558;5.100;2022-10-14T05:04:29;40.70;;;28.27;;
32327;SDS011;18806;51.558;5.100;2022-10-14T05:06:56;37.53;;;27.05;;
32327;SDS011;18806;51.558;5.100;2022-10-14T05:09:23;40.70;;;27.17;;
32327;SDS011;18806;51.558;5.100;2022-10-14T05:11:50;37.83;;;26.50;;
32327;SDS011;18806;51.558;5.100;2022-10-14T05:14:17;36.72;;;25.98;;
32327;SDS011;18806;51.558;5.100;2022-10-14T05:16:44;35.95;;;25.67;;
32327;SDS011;18806;51.558;5.100;2022-10-14T05:19:11;36.35;;;26.05;;
32327;SDS011;18806;51.558;5.100;2022-10-14T05:21:38;39.40;;;26.67;;
32327;SDS011;18806;51.558;5.100;2022-10-14T05:24:10;36.58;;;25.92;;
32327;SDS011;18806;51.558;5.100;2022-10-14T05:26:37;36.47;;;24.92;;
32327;SDS011;18806;51.558;5.100;2022-10-14T05:29:04;35.40;;;25.40;;
32327;SDS011;18806;51.558;5.100;2022-10-14T05:31:31;33.80;;;25.23;;
32327;SDS011;18806;51.558;5.100;2022-10-14T05:34:00;33.20;;;24.95;;
32327;SDS011;18806;51.558;5.100;2022-10-14T05:36:27;35.97;;;24.50;;
32327;SDS011;18806;51.558;5.100;2022-10-14T05:38:57;32.35;;;23.92;;
32327;SDS011;18806;51.558;5.100;2022-10-14T05:41:24;35.13;;;24.20;;
32327;SDS011;18806;51.558;5.100;2022-10-14T05:43:51;30.20;;;22.52;;
32327;SDS011;18806;51.558;5.100;2022-10-14T05:46:18;27.00;;;20.95;;
32327;SDS011;18806;51.558;5.100;2022-10-14T05:48:45;28.70;;;22.33;;
32327;SDS011;18806;51.558;5.100;2022-10-14T05:51:13;25.65;;;21.33;;
32327;SDS011;18806;51.558;5.100;2022-10-14T05:53:40;25.33;;;20.30;;
32327;SDS011;18806;51.558;5.100;2022-10-14T05:56:11;26.25;;;20.50;;
32327;SDS011;18806;51.558;5.100;2022-10-14T05:58:39;25.15;;;20.27;;
32327;SDS011;18806;51.558;5.100;2022-10-14T06:01:07;25.92;;;19.90;;
32327;SDS011;18806;51.558;5.100;2022-10-14T06:03:35;24.92;;;19.98;;
32327;SDS011;18806;51.558;5.100;2022-10-14T06:06:02;24.42;;;20.15;;
32327;SDS011;18806;51.558;5.100;2022-10-14T06:08:29;23.02;;;19.35;;
32327;SDS011;18806;51.558;5.100;2022-10-14T06:10:56;23.20;;;19.48;;
32327;SDS011;18806;51.558;5.100;2022-10-14T06:13:23;24.63;;;20.00;;
32327;SDS011;18806;51.558;5.100;2022-10-14T06:15:53;24.83;;;19.88;;
32327;SDS011;18806;51.558;5.100;2022-10-14T06:18:23;23.65;;;19.25;;
32327;SDS011;18806;51.558;5.100;2022-10-14T06:20:50;23.13;;;18.70;;
32327;SDS011;18806;51.558;5.100;2022-10-14T06:23:18;23.40;;;18.50;;
32327;SDS011;18806;51.558;5.100;2022-10-14T06:25:45;21.70;;;18.17;;
32327;SDS011;18806;51.558;5.100;2022-10-14T06:28:12;22.10;;;18.25;;
32327;SDS011;18806;51.558;5.100;2022-10-14T06:30:39;23.08;;;18.75;;
32327;SDS011;18806;51.558;5.100;2022-10-14T06:33:07;21.00;;;17.45;;
32327;SDS011;18806;51.558;5.100;2022-10-14T06:35:34;21.45;;;17.20;;
32327;SDS011;18806;51.558;5.100;2022-10-14T06:38:02;22.15;;;17.88;;
32327;SDS011;18806;51.558;5.100;2022-10-14T06:40:29;21.40;;;17.77;;
32327;SDS011;18806;51.558;5.100;2022-10-14T06:42:56;21.88;;;18.42;;
32327;SDS011;18806;51.558;5.100;2022-10-14T06:45:24;21.38;;;17.80;;
32327;SDS011;18806;51.558;5.100;2022-10-14T06:47:52;20.75;;;17.50;;
32327;SDS011;18806;51.558;5.100;2022-10-14T06:50:19;21.80;;;17.67;;
32327;SDS011;18806;51.558;5.100;2022-10-14T06:52:46;20.98;;;17.23;;
32327;SDS011;18806;51.558;5.100;2022-10-14T06:55:13;19.43;;;17.03;;
32327;SDS011;18806;51.558;5.100;2022-10-14T06:57:41;20.98;;;16.85;;
32327;SDS011;18806;51.558;5.100;2022-10-14T07:00:09;19.60;;;16.48;;
32327;SDS011;18806;51.558;5.100;2022-10-14T07:02:36;19.77;;;16.50;;
32327;SDS011;18806;51.558;5.100;2022-10-14T07:05:03;18.98;;;16.08;;
32327;SDS011;18806;51.558;5.100;2022-10-14T07:07:31;18.10;;;15.45;;
32327;SDS011;18806;51.558;5.100;2022-10-14T07:09:58;18.77;;;16.13;;
32327;SDS011;18806;51.558;5.100;2022-10-14T07:12:25;17.05;;;15.20;;
32327;SDS011;18806;51.558;5.100;2022-10-14T07:14:52;18.88;;;15.05;;
32327;SDS011;18806;51.558;5.100;2022-10-14T07:17:19;19.98;;;15.95;;
32327;SDS011;18806;51.558;5.100;2022-10-14T07:20:02;20.35;;;16.45;;
32327;SDS011;18806;51.558;5.100;2022-10-14T07:22:29;19.05;;;16.23;;
32327;SDS011;18806;51.558;5.100;2022-10-14T07:25:03;19.85;;;16.77;;
32327;SDS011;18806;51.558;5.100;2022-10-14T07:27:30;19.05;;;16.55;;
32327;SDS011;18806;51.558;5.100;2022-10-14T07:29:57;20.52;;;16.10;;
32327;SDS011;18806;51.558;5.100;2022-10-14T07:32:26;20.52;;;16.73;;
32327;SDS011;18806;51.558;5.100;2022-10-14T07:34:53;18.65;;;15.52;;
32327;SDS011;18806;51.558;5.100;2022-10-14T07:37:21;19.80;;;16.83;;
32327;SDS011;18806;51.558;5.100;2022-10-14T07:39:48;20.75;;;16.30;;
32327;SDS011;18806;51.558;5.100;2022-10-14T07:42:15;18.90;;;15.93;;
32327;SDS011;18806;51.558;5.100;2022-10-14T07:44:42;18.80;;;15.60;;
32327;SDS011;18806;51.558;5.100;2022-10-14T07:47:10;21.80;;;17.48;;
32327;SDS011;18806;51.558;5.100;2022-10-14T07:49:38;20.55;;;16.08;;
32327;SDS011;18806;51.558;5.100;2022-10-14T07:52:05;18.55;;;16.27;;
32327;SDS011;18806;51.558;5.100;2022-10-14T07:54:32;20.42;;;16.83;;
32327;SDS011;18806;51.558;5.100;2022-10-14T07:56:59;19.43;;;16.40;;
32327;SDS011;18806;51.558;5.100;2022-10-14T07:59:26;21.30;;;16.30;;
32327;SDS011;18806;51.558;5.100;2022-10-14T08:01:53;21.50;;;16.70;;
32327;SDS011;18806;51.558;5.100;2022-10-14T08:04:22;20.42;;;16.75;;
32327;SDS011;18806;51.558;5.100;2022-10-14T08:06:49;19.85;;;16.27;;
32327;SDS011;18806;51.558;5.100;2022-10-14T08:09:17;20.75;;;16.15;;
32327;SDS011;18806;51.558;5.100;2022-10-14T08:11:44;18.20;;;15.03;;
32327;SDS011;18806;51.558;5.100;2022-10-14T08:14:15;18.40;;;15.80;;
32327;SDS011;18806;51.558;5.100;2022-10-14T08:16:45;19.17;;;15.45;;
32327;SDS011;18806;51.558;5.100;2022-10-14T08:19:12;20.90;;;15.63;;
32327;SDS011;18806;51.558;5.100;2022-10-14T08:21:40;19.05;;;15.48;;
32327;SDS011;18806;51.558;5.100;2022-10-14T08:24:08;18.85;;;14.68;;
32327;SDS011;18806;51.558;5.100;2022-10-14T08:26:38;18.35;;;14.82;;
32327;SDS011;18806;51.558;5.100;2022-10-14T08:29:08;18.05;;;14.73;;
32327;SDS011;18806;51.558;5.100;2022-10-14T08:31:35;16.45;;;14.30;;
32327;SDS011;18806;51.558;5.100;2022-10-14T08:34:03;17.70;;;14.50;;
32327;SDS011;18806;51.558;5.100;2022-10-14T08:36:30;17.45;;;14.70;;
32327;SDS011;18806;51.558;5.100;2022-10-14T08:38:57;17.70;;;14.45;;
32327;SDS011;18806;51.558;5.100;2022-10-14T08:46:45;18.15;;;14.48;;
32327;SDS011;18806;51.558;5.100;2022-10-14T08:52:00;17.33;;;13.60;;
32327;SDS011;18806;51.558;5.100;2022-10-14T08:54:51;17.35;;;13.45;;
32327;SDS011;18806;51.558;5.100;2022-10-14T08:57:20;16.50;;;13.15;;
32327;SDS011;18806;51.558;5.100;2022-10-14T08:59:47;16.43;;;13.57;;
32327;SDS011;18806;51.558;5.100;2022-10-14T09:05:00;16.17;;;13.05;;
32327;SDS011;18806;51.558;5.100;2022-10-14T09:07:27;19.33;;;13.48;;
32327;SDS011;18806;51.558;5.100;2022-10-14T09:10:03;16.30;;;13.20;;
32327;SDS011;18806;51.558;5.100;2022-10-14T09:12:32;15.07;;;12.18;;
32327;SDS011;18806;51.558;5.100;2022-10-14T09:15:08;14.57;;;12.57;;
32327;SDS011;18806;51.558;5.100;2022-10-14T09:18:00;15.63;;;12.30;;
32327;SDS011;18806;51.558;5.100;2022-10-14T09:20:30;15.68;;;12.25;;
32327;SDS011;18806;51.558;5.100;2022-10-14T09:25:35;13.52;;;10.40;;
32327;SDS011;18806;51.558;5.100;2022-10-14T09:28:04;12.20;;;10.17;;
32327;SDS011;18806;51.558;5.100;2022-10-14T09:30:33;12.95;;;9.93;;
32327;SDS011;18806;51.558;5.100;2022-10-14T09:33:01;11.70;;;9.80;;
32327;SDS011;18806;51.558;5.100;2022-10-14T09:35:38;13.13;;;9.50;;
32327;SDS011;18806;51.558;5.100;2022-10-14T09:38:06;12.90;;;9.37;;
32327;SDS011;18806;51.558;5.100;2022-10-14T09:40:34;10.73;;;8.77;;
32327;SDS011;18806;51.558;5.100;2022-10-14T09:45:51;9.68;;;8.32;;
32327;SDS011;18806;51.558;5.100;2022-10-14T09:48:37;10.45;;;8.43;;
32327;SDS011;18806;51.558;5.100;2022-10-14T09:53:45;9.73;;;8.43;;
32327;SDS011;18806;51.558;5.100;2022-10-14T09:56:14;10.40;;;7.70;;
32327;SDS011;18806;51.558;5.100;2022-10-14T09:58:49;10.03;;;7.70;;
32327;SDS011;18806;51.558;5.100;2022-10-14T10:01:19;10.27;;;7.20;;
32327;SDS011;18806;51.558;5.100;2022-10-14T10:03:48;9.23;;;7.10;;
32327;SDS011;18806;51.558;5.100;2022-10-14T10:06:16;7.93;;;6.88;;
32327;SDS011;18806;51.558;5.100;2022-10-14T10:13:53;8.38;;;6.70;;
32327;SDS011;18806;51.558;5.100;2022-10-14T10:16:23;8.67;;;6.60;;
32327;SDS011;18806;51.558;5.100;2022-10-14T10:18:51;7.17;;;6.30;;
32327;SDS011;18806;51.558;5.100;2022-10-14T10:21:22;7.97;;;6.65;;
32327;SDS011;18806;51.558;5.100;2022-10-14T10:23:53;8.23;;;6.03;;
32327;SDS011;18806;51.558;5.100;2022-10-14T10:26:22;7.85;;;5.85;;
32327;SDS011;18806;51.558;5.100;2022-10-14T10:28:54;7.07;;;6.05;;
32327;SDS011;18806;51.558;5.100;2022-10-14T10:33:55;8.48;;;6.40;;
32327;SDS011;18806;51.558;5.100;2022-10-14T10:36:30;8.48;;;6.32;;
32327;SDS011;18806;51.558;5.100;2022-10-14T10:39:00;7.70;;;6.55;;
32327;SDS011;18806;51.558;5.100;2022-10-14T10:41:45;8.80;;;6.30;;
32327;SDS011;18806;51.558;5.100;2022-10-14T10:52:02;7.22;;;6.15;;
32327;SDS011;18806;51.558;5.100;2022-10-14T10:54:39;8.60;;;6.47;;
32327;SDS011;18806;51.558;5.100;2022-10-14T10:57:26;7.03;;;6.28;;
32327;SDS011;18806;51.558;5.100;2022-10-14T11:00:02;7.82;;;6.53;;
32327;SDS011;18806;51.558;5.100;2022-10-14T11:02:52;8.93;;;7.03;;
32327;SDS011;18806;51.558;5.100;2022-10-14T11:05:42;8.88;;;7.65;;
32327;SDS011;18806;51.558;5.100;2022-10-14T11:08:47;10.17;;;8.03;;
32327;SDS011;18806;51.558;5.100;2022-10-14T11:11:27;11.70;;;8.55;;
32327;SDS011;18806;51.558;5.100;2022-10-14T11:23:05;11.40;;;10.20;;
32327;SDS011;18806;51.558;5.100;2022-10-14T11:30:50;12.80;;;10.60;;
32327;SDS011;18806;51.558;5.100;2022-10-14T11:46:05;12.80;;;11.50;;
32327;SDS011;18806;51.558;5.100;2022-10-14T11:48:50;13.95;;;12.45;;
32327;SDS011;18806;51.558;5.100;2022-10-14T11:54:12;14.27;;;12.15;;
32327;SDS011;18806;51.558;5.100;2022-10-14T11:59:13;13.73;;;12.20;;
32327;SDS011;18806;51.558;5.100;2022-10-14T12:01:43;13.32;;;11.90;;
32327;SDS011;18806;51.558;5.100;2022-10-14T12:04:14;14.27;;;11.98;;
32327;SDS011;18806;51.558;5.100;2022-10-14T12:06:47;13.32;;;11.85;;
32327;SDS011;18806;51.558;5.100;2022-10-14T12:14:21;12.77;;;11.38;;
32327;SDS011;18806;51.558;5.100;2022-10-14T12:16:50;12.10;;;10.90;;
32327;SDS011;18806;51.558;5.100;2022-10-14T12:19:21;11.82;;;10.63;;
32327;SDS011;18806;51.558;5.100;2022-10-14T12:21:55;12.27;;;10.98;;
32327;SDS011;18806;51.558;5.100;2022-10-14T12:24:25;12.00;;;10.63;;
32327;SDS011;18806;51.558;5.100;2022-10-14T12:26:56;12.18;;;10.98;;
32327;SDS011;18806;51.558;5.100;2022-10-14T12:29:25;12.07;;;10.95;;
32327;SDS011;18806;51.558;5.100;2022-10-14T12:32:07;11.57;;;10.32;;
32327;SDS011;18806;51.558;5.100;2022-10-14T12:34:47;11.82;;;10.73;;
32327;SDS011;18806;51.558;5.100;2022-10-14T12:42:33;12.55;;;11.35;;
32327;SDS011;18806;51.558;5.100;2022-10-14T12:45:02;13.70;;;12.30;;
32327;SDS011;18806;51.558;5.100;2022-10-14T12:47:39;12.60;;;11.40;;
32327;SDS011;18806;51.558;5.100;2022-10-14T12:52:43;12.07;;;10.90;;
32327;SDS011;18806;51.558;5.100;2022-10-14T12:55:15;11.88;;;10.63;;
32327;SDS011;18806;51.558;5.100;2022-10-14T12:57:43;12.45;;;11.15;;
32327;SDS011;18806;51.558;5.100;2022-10-14T13:02:49;12.63;;;11.32;;
32327;SDS011;18806;51.558;5.100;2022-10-14T13:15:56;15.15;;;13.65;;
32327;SDS011;18806;51.558;5.100;2022-10-14T13:20:55;14.82;;;13.32;;
32327;SDS011;18806;51.558;5.100;2022-10-14T13:31:47;18.57;;;16.57;;
32327;SDS011;18806;51.558;5.100;2022-10-14T13:34:25;17.60;;;15.80;;
32327;SDS011;18806;51.558;5.100;2022-10-14T13:37:00;18.40;;;16.42;;
32327;SDS011;18806;51.558;5.100;2022-10-14T13:39:33;19.17;;;17.17;;
32327;SDS011;18806;51.558;5.100;2022-10-14T13:42:00;18.85;;;16.92;;
32327;SDS011;18806;51.558;5.100;2022-10-14T13:44:28;19.70;;;17.30;;
32327;SDS011;18806;51.558;5.100;2022-10-14T13:46:56;19.63;;;17.52;;
32327;SDS011;18806;51.558;5.100;2022-10-14T13:49:29;19.50;;;16.27;;
32327;SDS011;18806;51.558;5.100;2022-10-14T13:51:59;19.52;;;17.40;;
32327;SDS011;18806;51.558;5.100;2022-10-14T13:54:30;19.70;;;17.60;;
32327;SDS011;18806;51.558;5.100;2022-10-14T13:56:59;22.17;;;17.42;;
32327;SDS011;18806;51.558;5.100;2022-10-14T13:59:53;20.33;;;17.45;;
32327;SDS011;18806;51.558;5.100;2022-10-14T14:02:41;21.07;;;17.40;;
32327;SDS011;18806;51.558;5.100;2022-10-14T14:05:12;20.88;;;18.05;;
32327;SDS011;18806;51.558;5.100;2022-10-14T14:07:40;20.73;;;18.00;;
32327;SDS011;18806;51.558;5.100;2022-10-14T14:10:29;22.47;;;18.10;;
32327;SDS011;18806;51.558;5.100;2022-10-14T14:12:57;22.10;;;18.17;;
32327;SDS011;18806;51.558;5.100;2022-10-14T14:15:26;20.90;;;17.88;;
32327;SDS011;18806;51.558;5.100;2022-10-14T14:17:53;20.23;;;17.83;;
32327;SDS011;18806;51.558;5.100;2022-10-14T14:20:21;21.60;;;18.38;;
32327;SDS011;18806;51.558;5.100;2022-10-14T14:22:49;21.90;;;18.42;;
32327;SDS011;18806;51.558;5.100;2022-10-14T14:28:00;22.37;;;18.30;;
32327;SDS011;18806;51.558;5.100;2022-10-14T14:30:29;21.15;;;17.83;;
32327;SDS011;18806;51.558;5.100;2022-10-14T14:33:00;22.45;;;18.38;;
32327;SDS011;18806;51.558;5.100;2022-10-14T14:35:27;22.13;;;18.33;;
32327;SDS011;18806;51.558;5.100;2022-10-14T14:37:56;22.60;;;17.65;;
32327;SDS011;18806;51.558;5.100;2022-10-14T14:40:25;20.48;;;17.48;;
32327;SDS011;18806;51.558;5.100;2022-10-14T14:43:02;22.00;;;16.97;;
32327;SDS011;18806;51.558;5.100;2022-10-14T14:45:30;21.23;;;17.27;;
32327;SDS011;18806;51.558;5.100;2022-10-14T14:48:02;20.80;;;16.77;;
32327;SDS011;18806;51.558;5.100;2022-10-14T14:50:32;20.52;;;16.60;;
32327;SDS011;18806;51.558;5.100;2022-10-14T14:53:01;20.95;;;16.77;;
32327;SDS011;18806;51.558;5.100;2022-10-14T15:00:57;20.02;;;16.00;;
32327;SDS011;18806;51.558;5.100;2022-10-14T15:03:25;20.27;;;15.90;;
32327;SDS011;18806;51.558;5.100;2022-10-14T15:06:00;21.10;;;16.33;;
32327;SDS011;18806;51.558;5.100;2022-10-14T15:08:31;21.38;;;16.05;;
32327;SDS011;18806;51.558;5.100;2022-10-14T15:11:00;21.13;;;16.33;;
32327;SDS011;18806;51.558;5.100;2022-10-14T15:13:32;20.58;;;15.98;;
32327;SDS011;18806;51.558;5.100;2022-10-14T15:16:14;20.75;;;15.65;;
32327;SDS011;18806;51.558;5.100;2022-10-14T15:21:39;20.83;;;15.82;;
32327;SDS011;18806;51.558;5.100;2022-10-14T15:24:13;21.85;;;16.60;;
32327;SDS011;18806;51.558;5.100;2022-10-14T15:26:40;20.13;;;15.70;;
32327;SDS011;18806;51.558;5.100;2022-10-14T15:29:14;21.53;;;15.77;;
32327;SDS011;18806;51.558;5.100;2022-10-14T15:34:28;23.03;;;16.50;;
32327;SDS011;18806;51.558;5.100;2022-10-14T15:36:58;21.73;;;16.05;;
32327;SDS011;18806;51.558;5.100;2022-10-14T15:39:25;20.85;;;16.13;;
32327;SDS011;18806;51.558;5.100;2022-10-14T15:41:52;21.75;;;16.45;;
32327;SDS011;18806;51.558;5.100;2022-10-14T15:44:20;22.20;;;16.17;;
32327;SDS011;18806;51.558;5.100;2022-10-14T15:46:47;21.58;;;15.35;;
32327;SDS011;18806;51.558;5.100;2022-10-14T15:49:37;20.65;;;15.65;;
32327;SDS011;18806;51.558;5.100;2022-10-14T15:52:15;19.43;;;14.30;;
32327;SDS011;18806;51.558;5.100;2022-10-14T15:54:46;19.77;;;13.75;;
32327;SDS011;18806;51.558;5.100;2022-10-14T15:57:14;19.58;;;14.15;;
32327;SDS011;18806;51.558;5.100;2022-10-14T15:59:43;19.40;;;13.95;;
32327;SDS011;18806;51.558;5.100;2022-10-14T16:04:40;20.25;;;14.25;;
32327;SDS011;18806;51.558;5.100;2022-10-14T16:07:27;18.53;;;14.03;;
32327;SDS011;18806;51.558;5.100;2022-10-14T16:09:54;19.13;;;14.13;;
32327;SDS011;18806;51.558;5.100;2022-10-14T16:12:27;19.20;;;13.95;;
32327;SDS011;18806;51.558;5.100;2022-10-14T16:18:03;19.38;;;14.07;;
32327;SDS011;18806;51.558;5.100;2022-10-14T16:21:12;22.08;;;14.82;;
32327;SDS011;18806;51.558;5.100;2022-10-14T16:23:40;19.38;;;14.02;;
32327;SDS011;18806;51.558;5.100;2022-10-14T16:26:10;22.17;;;14.43;;
32327;SDS011;18806;51.558;5.100;2022-10-14T16:28:42;21.60;;;15.40;;
32327;SDS011;18806;51.558;5.100;2022-10-14T16:31:11;19.60;;;14.60;;
32327;SDS011;18806;51.558;5.100;2022-10-14T16:33:39;21.23;;;15.45;;
32327;SDS011;18806;51.558;5.100;2022-10-14T16:36:12;25.35;;;16.88;;
32327;SDS011;18806;51.558;5.100;2022-10-14T16:38:40;22.42;;;15.65;;
32327;SDS011;18806;51.558;5.100;2022-10-14T16:41:08;23.45;;;16.45;;
32327;SDS011;18806;51.558;5.100;2022-10-14T16:43:36;23.60;;;16.75;;
32327;SDS011;18806;51.558;5.100;2022-10-14T16:46:03;23.13;;;16.55;;
32327;SDS011;18806;51.558;5.100;2022-10-14T16:48:32;22.92;;;16.85;;
32327;SDS011;18806;51.558;5.100;2022-10-14T16:51:00;25.30;;;17.27;;
32327;SDS011;18806;51.558;5.100;2022-10-14T16:53:30;23.23;;;16.35;;
32327;SDS011;18806;51.558;5.100;2022-10-14T16:56:10;25.30;;;16.45;;
32327;SDS011;18806;51.558;5.100;2022-10-14T16:58:56;24.92;;;17.85;;
32327;SDS011;18806;51.558;5.100;2022-10-14T17:01:26;25.45;;;18.15;;
32327;SDS011;18806;51.558;5.100;2022-10-14T17:03:53;25.20;;;17.75;;
32327;SDS011;18806;51.558;5.100;2022-10-14T17:06:31;25.92;;;18.65;;
32327;SDS011;18806;51.558;5.100;2022-10-14T17:08:58;26.40;;;18.58;;
32327;SDS011;18806;51.558;5.100;2022-10-14T17:11:29;24.95;;;18.38;;